HE34 weather

Kibrit Airport
Kibrit, Suez Governorate, Egypt

Public forecast

Using degrees Celsius for public forecast. Weather courtesy of forecast.io.

Closest aviation weather report (METAR) to Kibrit Airport

Closest report is Cairo International Airport, 56.9 nm (105.4 km) W. Retrieved 2019/10/16 09:00 UTC (25 minutes ago):

HECA 160900Z 35004KT 6000 SCT025 28/20 Q1016

Closest aviation forecast (TAF) to Kibrit Airport

Closest forecast is Cairo International Airport, 56.9 nm (105.4 km) W. Retrieved 2019/10/16 06:40 UTC (3 hours ago):

TAF HECA 160500Z 1606/1712 34008KT 6000 NSC TEMPO 1606/1608 VRB03KT 4000 BR BECMG 1608/1610 35010KT 9999 SCT025